Ana Sayfa
METAR-TAF:

METAR-TAF

Havaalanları :

Huntsville, Alabama, Amerika Birleşik Devletleri

Enlem: 34-38-37N, Boylam: 086-47-08W, yükseklik: 192 m

Güncel hava durumu gözlemi

Rapor saat 18:53 UTC de 39 dakika önce yapıldı.
Rüzgar kuzey/kuzeybatıdan 7 kt
Sıcaklık 37°C
Nem 29%
Basınç 1015 hPa
Görüş mesafesi: 16.1 km
25000 ft yükseklikte parçalı bulutlu

METAR: KHSV 251853Z 33007KT 10SM SCT250 37/16 A2998 RMK AO2 SLP144 T03670156

Saat: 14:32 (19:32 UTC)

Tahmin

Rapor saat 17:20 UTC de 2 saat ve 12 dakika önce yapıldı.
Ayın 25'si saat 18 UTC'den ayın 26'si saat 18 UTC'ye kadar geçerli Tahmin
Rüzgar değişken yönden 5 kt
Görüş mesafesi: 10 km
25000 ft yükseklikte parçalı bulutlu
Ayın 26'si saat 1500 UTC'den
Rüzgar güneybatıdan 5 kt
Görüş mesafesi: 10 km
25000 ft yükseklikte parçalı bulutlu

TAF: KHSV 251720Z 2518/2618 VRB05KT P6SM SCT250 FM261500 22005KT P6SM SCT250

4.000'den fazla havaalanı için hava durumu gözlemleri ve tahminleri (METAR ve TAF raporları).

Kullanılabilir istasyonlar harita üzerinde sarı ve kırmızı noktalarla gösterilir.

İstasyonun adını görmek için fareyi noktanın üzerinde gezdirin.

Sonrasında hava gözlem ve tahminlerini görmek için tıklayın.

Haritayı değiştirmek için: yaklaştırmak için siyah artı işaretli yeşil düğmeye ve uzaklaştırmak için de eksi işaretli düğmeye hızla tıklayın; bitişik haritalar için yeşil okları kullanın.


METAR-TAF: